createdAt,value
2018-06-09T00:00:01.280Z,16.9
2018-06-09T00:05:01.285Z,16.0
2018-06-09T00:10:01.282Z,15.2
2018-06-09T00:15:01.261Z,14.2
2018-06-09T00:20:01.540Z,13.2
2018-06-09T00:25:01.309Z,12.5
2018-06-09T00:30:01.432Z,11.5
2018-06-09T00:35:01.274Z,10.9
2018-06-09T00:40:02.403Z,11.2
2018-06-09T00:45:06.382Z,10.8
2018-06-09T00:50:01.360Z,11.3
2018-06-09T00:55:01.287Z,11.9
2018-06-09T01:00:06.452Z,11.5
2018-06-09T01:05:01.288Z,10.6
2018-06-09T01:10:01.293Z,11.0
2018-06-09T01:15:01.264Z,10.8
2018-06-09T01:20:01.471Z,10.1
2018-06-09T01:25:01.247Z,10.4
2018-06-09T01:30:01.376Z,10.2
2018-06-09T01:35:01.378Z,9.4
2018-06-09T01:40:01.313Z,9.0
2018-06-09T01:45:01.316Z,8.9
2018-06-09T01:50:01.408Z,9.2
2018-06-09T01:55:01.220Z,9.8
2018-06-09T02:00:01.320Z,10.2
2018-06-09T02:05:01.256Z,10.5
2018-06-09T02:15:01.374Z,10.1
2018-06-09T02:25:01.328Z,10.0
2018-06-09T02:30:01.453Z,10.6
2018-06-09T02:35:06.258Z,11.0
2018-06-09T02:40:01.380Z,11.2
2018-06-09T02:45:01.262Z,11.8
2018-06-09T02:50:01.254Z,12.0
2018-06-09T02:55:01.243Z,12.1
2018-06-09T03:00:01.464Z,12.7
2018-06-09T03:05:01.246Z,13.0
2018-06-09T03:10:01.239Z,12.2
2018-06-09T03:15:01.247Z,11.9
2018-06-09T03:20:01.244Z,11.1
2018-06-09T03:25:01.214Z,10.3
2018-06-09T03:30:01.378Z,9.6
2018-06-09T03:40:01.253Z,9.2
2018-06-09T03:56:01.383Z,9.0
2018-06-09T04:01:02.305Z,8.6
2018-06-09T04:11:01.383Z,8.4
2018-06-09T04:17:01.376Z,8.6
2018-06-09T04:22:01.239Z,9.0
2018-06-09T04:27:01.308Z,9.1
2018-06-09T04:32:01.241Z,9.2
2018-06-09T04:37:01.376Z,9.3
2018-06-09T04:42:01.316Z,8.7
2018-06-09T04:52:01.382Z,9.0
2018-06-09T04:58:01.365Z,8.9
2018-06-09T05:08:01.313Z,9.4
2018-06-09T05:13:01.293Z,9.7
2018-06-09T05:23:01.435Z,10.0
2018-06-09T05:33:01.379Z,10.2
2018-06-09T05:43:01.333Z,10.1
2018-06-09T05:48:01.366Z,10.2
2018-06-09T05:53:06.282Z,10.4
2018-06-09T05:58:01.399Z,10.0
2018-06-09T06:03:01.260Z,9.5
2018-06-09T06:08:01.313Z,9.8
2018-06-09T06:13:01.253Z,9.4
2018-06-09T06:18:01.404Z,9.0
2018-06-09T06:23:01.260Z,8.8
2018-06-09T06:28:01.386Z,8.5
2018-06-09T06:33:01.275Z,8.0
2018-06-09T06:38:06.474Z,7.7
2018-06-09T06:43:01.289Z,7.4
2018-06-09T06:48:01.345Z,7.5
2018-06-09T06:58:01.401Z,7.4
2018-06-09T07:03:01.256Z,7.5
2018-06-09T07:08:01.452Z,7.8
2018-06-09T07:13:01.260Z,7.6
2018-06-09T07:18:01.296Z,8.2
2018-06-09T07:23:01.312Z,8.4
2018-06-09T07:28:01.343Z,8.8
2018-06-09T07:33:01.247Z,9.0
2018-06-09T07:38:01.344Z,9.3
2018-06-09T07:43:01.221Z,9.0
2018-06-09T07:48:01.313Z,8.9
2018-06-09T07:53:01.247Z,8.4
2018-06-09T07:58:01.507Z,8.2
2018-06-09T08:03:01.291Z,7.9
2018-06-09T08:08:01.384Z,7.8
2018-06-09T08:14:01.335Z,8.2
2018-06-09T08:19:01.300Z,8.7
2018-06-09T08:24:01.205Z,9.0
2018-06-09T08:29:01.344Z,9.6
2018-06-09T08:34:01.260Z,10.3
2018-06-09T08:44:01.352Z,10.4
2018-06-09T08:49:01.240Z,10.5
2018-06-09T08:54:01.210Z,11.0
2018-06-09T09:04:01.398Z,10.7
2018-06-09T09:09:01.393Z,11.5
2018-06-09T09:14:01.243Z,11.9
2018-06-09T09:19:01.323Z,11.7
2018-06-09T09:24:01.253Z,11.3
2018-06-09T09:29:01.392Z,11.2
2018-06-09T09:34:01.321Z,10.2
2018-06-09T09:39:06.429Z,9.4
2018-06-09T09:44:01.303Z,8.8
2018-06-09T09:54:01.376Z,9.3
2018-06-09T09:59:01.414Z,9.5
2018-06-09T10:04:01.246Z,10.2
2018-06-09T10:09:03.646Z,10.5
2018-06-09T10:14:01.249Z,10.9
2018-06-09T10:19:01.359Z,11.2
2018-06-09T10:24:06.321Z,11.5
2018-06-09T10:29:01.763Z,12.2
2018-06-09T10:34:01.291Z,13.3
2018-06-09T10:40:01.302Z,13.8
2018-06-09T10:45:06.253Z,13.6
2018-06-09T10:50:01.401Z,13.7
2018-06-09T10:55:01.305Z,13.5
2018-06-09T11:00:01.781Z,12.6
2018-06-09T11:05:01.275Z,12.7
2018-06-09T11:10:01.471Z,13.0
2018-06-09T11:15:06.251Z,12.5
2018-06-09T11:20:01.446Z,11.5
2018-06-09T11:25:01.259Z,11.6
2018-06-09T11:30:01.321Z,11.1
2018-06-09T11:40:06.594Z,11.8
2018-06-09T11:45:01.304Z,12.4
2018-06-09T11:50:01.419Z,12.6
2018-06-09T11:55:01.289Z,13.8
2018-06-09T12:00:01.372Z,16.8
2018-06-09T12:05:01.316Z,18.8
2018-06-09T12:10:01.318Z,21.8
2018-06-09T12:15:01.208Z,25.3
2018-06-09T12:20:01.402Z,27.7
2018-06-09T12:25:01.387Z,28.1
2018-06-09T12:30:01.434Z,29.1
2018-06-09T12:35:01.282Z,30.0
2018-06-09T12:40:01.345Z,30.3
2018-06-09T12:45:01.226Z,28.8
2018-06-09T12:50:01.306Z,27.3
2018-06-09T12:55:01.268Z,25.8
2018-06-09T13:00:01.400Z,22.9
2018-06-09T13:05:01.266Z,19.8
2018-06-09T13:10:01.269Z,22.5
2018-06-09T13:15:01.283Z,22.6
2018-06-09T13:20:01.332Z,21.9
2018-06-09T13:25:06.287Z,20.5
2018-06-09T13:30:01.256Z,19.8
2018-06-09T13:35:01.288Z,15.0
2018-06-09T13:40:01.325Z,12.4
2018-06-09T13:45:01.305Z,11.4
2018-06-09T13:50:01.522Z,12.1
2018-06-09T13:55:01.242Z,12.2
2018-06-09T14:00:01.310Z,13.0
2018-06-09T14:05:01.278Z,13.2
2018-06-09T14:10:01.345Z,12.8
2018-06-09T14:15:01.254Z,11.8
2018-06-09T14:20:01.451Z,11.1
2018-06-09T14:25:01.271Z,9.2
2018-06-09T14:30:01.339Z,8.0
2018-06-09T14:35:01.297Z,7.6
2018-06-09T14:40:01.406Z,7.2
2018-06-09T14:45:01.300Z,6.4
2018-06-09T14:50:01.475Z,7.1
2018-06-09T14:55:01.279Z,8.1
2018-06-09T15:00:01.413Z,8.0
2018-06-09T15:05:01.245Z,8.2
2018-06-09T15:15:06.381Z,7.6
2018-06-09T15:20:01.400Z,6.8
2018-06-09T15:30:01.509Z,6.8
2018-06-09T15:35:01.209Z,7.2
2018-06-09T15:40:01.401Z,7.8
2018-06-09T15:45:01.241Z,8.0
2018-06-09T15:50:01.340Z,8.4
2018-06-09T15:55:01.286Z,8.3
2018-06-09T16:00:01.535Z,8.6
2018-06-09T16:05:01.346Z,8.0
2018-06-09T16:10:01.479Z,8.6
2018-06-09T16:15:01.327Z,8.6
2018-06-09T16:20:01.430Z,12.0
2018-06-09T16:25:01.282Z,12.7
2018-06-09T16:30:01.338Z,13.4
2018-06-09T16:35:01.304Z,13.0
2018-06-09T16:40:01.482Z,13.1
2018-06-09T16:45:06.262Z,10.2
2018-06-09T16:50:01.370Z,9.5
2018-06-09T17:00:01.335Z,9.5
2018-06-09T17:05:01.261Z,9.8
2018-06-09T17:10:01.398Z,9.7
2018-06-09T17:15:01.272Z,10.1
2018-06-09T17:25:01.558Z,10.4
2018-06-09T17:30:01.308Z,10.3
2018-06-09T17:35:01.286Z,10.7
2018-06-09T17:40:01.346Z,10.9
2018-06-09T17:45:01.287Z,11.2
2018-06-09T17:50:01.407Z,11.4
2018-06-09T17:55:01.280Z,11.7
2018-06-09T18:00:01.534Z,11.5
2018-06-09T18:05:01.335Z,11.2
2018-06-09T18:10:01.704Z,11.3
2018-06-09T18:15:01.328Z,11.2
2018-06-09T18:20:01.535Z,11.8
2018-06-09T18:25:01.253Z,12.0
2018-06-09T18:30:01.452Z,12.9
2018-06-09T18:40:01.327Z,13.0
2018-06-09T18:45:01.245Z,12.2
2018-06-09T18:50:01.377Z,12.0
2018-06-09T18:55:01.245Z,11.0
2018-06-09T19:00:01.473Z,10.8
2018-06-09T19:05:01.254Z,10.2
2018-06-09T19:10:01.352Z,10.9
2018-06-09T19:15:01.244Z,11.2
2018-06-09T19:20:01.332Z,12.0
2018-06-09T19:30:01.317Z,13.7
2018-06-09T19:35:01.260Z,13.9
2018-06-09T19:40:01.381Z,14.9
2018-06-09T19:45:01.313Z,14.9
2018-06-09T19:50:01.793Z,16.1
2018-06-09T20:00:01.253Z,16.2
2018-06-09T20:05:01.244Z,15.9
2018-06-09T20:10:01.405Z,16.4
2018-06-09T20:15:01.300Z,16.8
2018-06-09T20:20:01.397Z,17.3
2018-06-09T20:25:01.247Z,18.0
2018-06-09T20:30:01.247Z,19.2
2018-06-09T20:35:01.453Z,19.4
2018-06-09T20:40:01.319Z,19.6
2018-06-09T20:45:01.362Z,19.4
2018-06-09T20:51:01.527Z,21.0
2018-06-09T20:56:01.371Z,21.4
2018-06-09T21:01:01.279Z,22.8
2018-06-09T21:06:01.435Z,23.0
2018-06-09T21:11:01.314Z,23.7
2018-06-09T21:16:01.452Z,22.9
2018-06-09T21:21:01.287Z,22.7
2018-06-09T21:26:01.321Z,23.1
2018-06-09T21:31:01.286Z,23.7
2018-06-09T21:37:01.285Z,25.0
2018-06-09T21:42:01.270Z,25.7
2018-06-09T21:47:01.337Z,27.3
2018-06-09T21:52:01.244Z,27.9
2018-06-09T21:57:06.390Z,28.2
2018-06-09T22:02:01.366Z,28.5
2018-06-09T22:07:01.338Z,28.6
2018-06-09T22:12:01.287Z,27.9
2018-06-09T22:17:01.478Z,27.8
2018-06-09T22:22:01.353Z,28.0
2018-06-09T22:27:01.430Z,27.6
2018-06-09T22:32:01.342Z,26.8
2018-06-09T22:37:01.404Z,26.4
2018-06-09T22:42:01.271Z,24.9
2018-06-09T22:47:01.405Z,24.3
2018-06-09T22:52:01.272Z,23.2
2018-06-09T22:57:01.278Z,22.6
2018-06-09T23:02:01.303Z,22.1
2018-06-09T23:07:01.419Z,22.2
2018-06-09T23:12:01.285Z,21.6
2018-06-09T23:17:01.353Z,21.7
2018-06-09T23:23:01.242Z,22.8
2018-06-09T23:28:01.346Z,23.4
2018-06-09T23:33:01.250Z,24.1
2018-06-09T23:38:01.282Z,25.4
2018-06-09T23:43:01.255Z,26.7
2018-06-09T23:48:01.324Z,26.6
2018-06-09T23:58:01.308Z,26.9
